CheckWX is a tool to help pilots better visualize weather data.  It is not intended as a substitute for an official pre-flight weather briefing.

08:44:54 UTC

PAPG TAF
Petersburg James A Johnson Airport
Petersburg, Alaska, USA
PAPG 180528Z 1806/1906 10004KT P6SM -SHRA SCT015 OVC025 FM181300 VRB04KT P6SM -SHRA SCT020 OVC030 FM181800 VRB04KT P6SM -SHRA SCT020 OVC040 AMD LTD TO CLD VIS AND WIND 1806/1815

Oct-18@
06:00 UTC

Oct-18 @ 06:00 UTC

Oct-18@
13:00 UTC

Oct-18 @ 13:00 UTC

PAPG 180528Z 1806/1906 10004KT P6SM -SHRA SCT015 OVC025
Wind
  • 100° at 4 KTS
Conditions
Light Rain
Cloud Levels
  • Scattered at 1,500' AGL
  • Overcast at 2,500' AGL

Oct-18@
13:00 UTC

Oct-18 @ 13:00 UTC

Oct-18@
18:00 UTC

Oct-18 @ 18:00 UTC

FM181300 VRB04KT P6SM -SHRA SCT020 OVC030

From

From Standard forecast or significant change

Wind
  • Variable at 4 KTS
Conditions
Light Rain
Cloud Levels
  • Scattered at 2,000' AGL
  • Overcast at 3,000' AGL

Oct-18@
18:00 UTC

Oct-18 @ 18:00 UTC

Oct-19@
06:00 UTC

Oct-19 @ 06:00 UTC

FM181800 VRB04KT P6SM -SHRA SCT020 OVC040 AMD LTD TO CLD VIS AND WIND 1806/1815

From

From Standard forecast or significant change

Wind
  • Variable at 4 KTS
Conditions
Light Rain
Cloud Levels
  • Scattered at 2,000' AGL
  • Overcast at 4,000' AGL